Thunder radar more information blitzortung!


Radar de pluja more information rain snow radar


Visita la nostra xarxa de llocs de meteo:

Template documentation
and downloads

And another site



No particular awareness of the weather is required.    There are no Weather-warnings

Pagina Historial Weather Underground text

Diari Resum Juny 3, 2017 Unitats:  Mètric    Imperial   Tant
« Previous Dia
SegĂźent Dia »
Diari Setmana Mensual Anual Personalitzada
  Maxima: Minima: Media:
Temperatura: -17.8 °C -7.8 °C -5.1 °C
Punt de rosada: -17.8 °C -12.1 °C -9.8 °C
Humitat: Humidity % 43 % 59 %
Wind Speed: 0 km/h 0 km/h 8 km/h
RĂ fegues de vent: 0 km/h - -
Vent:- - SSW
Pression baro: 0 hPa 34256.2 hPa -
Precipitacions: 0 mm    
Historical Graphs
 
 
Dades de taula per Juny 3, 2017
Temps Temperatura Punt de rosada Pression baro Vent Wind Speed RĂ fegues de vent Humitat Rainfall Rate (Hourly)
-17.8 °C -17.8 °C 0 hPa Calm     Humidity % 0 mm
00:02 -6.3 °C -10.3 °C 34395 hPa WSW 6 km/h 6 km/h 63 % 0 mm
04:30 -5.7 °C -8.8 °C 34361.1 hPa SSW 7.7 km/h 10.3 km/h 71 % 0 mm
04:40 -5.5 °C -8.7 °C 34361.1 hPa SW 5.1 km/h 10.3 km/h 70 % 0 mm
04:50 -4.9 °C -8.3 °C 34361.1 hPa WSW 2.6 km/h 5.1 km/h 69 % 0 mm
05:00 -4.4 °C -8.2 °C 34361.1 hPa WSW 5.1 km/h 7.7 km/h 66 % 0 mm
05:10 -4.3 °C -8.2 °C 34361.1 hPa SW 2.6 km/h 10.3 km/h 65 % 0 mm
05:20 -4.5 °C -8.2 °C 34361.1 hPa Calm   2.6 km/h 66 % 0 mm
05:30 -4.9 °C -8.6 °C 34361.1 hPa South 5.1 km/h 10.3 km/h 67 % 0 mm
05:40 -5.1 °C -8.3 °C 34327.3 hPa SSW 2.6 km/h 5.1 km/h 70 % 0 mm
05:50 -5 °C -8.4 °C 34327.3 hPa SW 5.1 km/h 7.7 km/h 68 % 0 mm
06:00 -4.9 °C -8.4 °C 34361.1 hPa SW 7.7 km/h 10.3 km/h 68 % 0 mm
06:10 -4.8 °C -8.4 °C 34361.1 hPa WSW 2.6 km/h 7.7 km/h 67 % 0 mm
06:20 -4.8 °C -8.4 °C 34361.1 hPa SW 5.1 km/h 15.6 km/h 67 % 0 mm
06:30 -4.9 °C -8.4 °C 34395 hPa WSW 12.9 km/h 12.9 km/h 68 % 0 mm
06:40 -4.9 °C -8.3 °C 34361.1 hPa WSW 7.7 km/h 10.3 km/h 69 % 0 mm
06:50 -4.8 °C -8.3 °C 34361.1 hPa WSW 5.1 km/h 10.3 km/h 68 % 0 mm
07:00 -4.6 °C -8.6 °C 34361.1 hPa SW 12.9 km/h 12.9 km/h 64 % 0 mm
12:01 -4.6 °C -8.6 °C 34361.1 hPa SSW 15 km/h 15 km/h 64 % 0 mm
12:06 -4.7 °C -8.8 °C 34395 hPa SSW 20.9 km/h 20.9 km/h 63 % 0 mm
12:11 -4.7 °C -8.8 °C 34395 hPa WSW 15 km/h 15 km/h 63 % 0 mm
12:16 -4.8 °C -9.1 °C 34395 hPa SW 20.9 km/h 20.9 km/h 62 % 0 mm
12:21 -4.7 °C -9 °C 34361.1 hPa SSW 12.7 km/h 12.7 km/h 62 % 0 mm
12:26 -4.7 °C -9.1 °C 34361.1 hPa SW 17.9 km/h 17.9 km/h 61 % 0 mm
12:31 -4.7 °C -9.3 °C 34361.1 hPa SSE 9 km/h 9 km/h 60 % 0 mm
12:36 -4.8 °C -9.3 °C 34361.1 hPa WSW 9 km/h 9.3 km/h 60 % 0 mm
12:41 -4.9 °C -9.2 °C 34361.1 hPa NW 9 km/h 9 km/h 62 % 0 mm
12:46 -5.3 °C -9.6 °C 34361.1 hPa WSW 11.1 km/h 11.1 km/h 62 % 0 mm
12:51 -5.4 °C -9.3 °C 34361.1 hPa SSW 6.3 km/h 6.3 km/h 64 % 0 mm
12:56 -5.6 °C -9.4 °C 34361.1 hPa West 7.6 km/h 7.6 km/h 65 % 0 mm
13:01 -5.7 °C -9.5 °C 34361.1 hPa WSW 9.8 km/h 9.8 km/h 65 % 0 mm
13:06 -5.8 °C -9.6 °C 34361.1 hPa WSW 15 km/h 15 km/h 65 % 0 mm
13:11 -5.9 °C -9.2 °C 34361.1 hPa South 3.1 km/h 3.1 km/h 69 % 0 mm
13:16 -6 °C -9.3 °C 34361.1 hPa WSW 9 km/h 9 km/h 69 % 0 mm
13:21 -6.1 °C -9.3 °C 34361.1 hPa SW 9 km/h 9 km/h 69 % 0 mm
13:26 -6 °C -9.2 °C 34361.1 hPa WSW 9 km/h 9 km/h 70 % 0 mm
13:31 -5.9 °C -8.9 °C 34361.1 hPa SSW 6.3 km/h 6.8 km/h 71 % 0 mm
13:36 -5.9 °C -9.1 °C 34361.1 hPa SSW 9 km/h 9 km/h 70 % 0 mm
13:41 -5.8 °C -9 °C 34361.1 hPa WSW 9 km/h 9 km/h 70 % 0 mm
13:46 -5.7 °C -8.9 °C 34361.1 hPa WSW 6 km/h 6 km/h 70 % 0 mm
13:51 -5.6 °C -8.8 °C 34361.1 hPa WSW 6 km/h 6 km/h 69 % 0 mm
13:56 -5.6 °C -8.8 °C 34361.1 hPa WSW 9 km/h 9 km/h 69 % 0 mm
14:01 -5.6 °C -8.7 °C 34361.1 hPa WSW 14.5 km/h 14.5 km/h 70 % 0 mm
14:06 -5.7 °C -8.7 °C 34395 hPa West 14.5 km/h 14.5 km/h 71 % 0 mm
14:11 -5.7 °C -8.7 °C 34395 hPa SW 9 km/h 9 km/h 71 % 0 mm
14:21 -5.6 °C -8.6 °C 34395 hPa SW 6 km/h 6 km/h 71 % 0 mm
14:26 -5.4 °C -8.5 °C 34395 hPa SW 9 km/h 9 km/h 71 % 0 mm
14:31 -5.3 °C -8.4 °C 34395 hPa SW 7.6 km/h 7.6 km/h 71 % 0 mm
14:36 -5.3 °C -8.4 °C 34395 hPa SW 6 km/h 6.3 km/h 71 % 0 mm
14:41 -5.3 °C -8.3 °C 34395 hPa WSW 6 km/h   72 % 0 mm
14:46 -5.3 °C -8.3 °C 34395 hPa SW 6.3 km/h 6.3 km/h 72 % 0 mm
14:51 -5.4 °C -8.3 °C 34395 hPa SW 12.7 km/h 12.7 km/h 72 % 0 mm
14:56 -5.3 °C -8.2 °C 34395 hPa SSW 6 km/h 6 km/h 73 % 0 mm
15:01 -5.2 °C -8.1 °C 34395 hPa WSW 9 km/h 9 km/h 73 % 0 mm
15:06 -5.1 °C -7.9 °C 34395 hPa West 9 km/h 9 km/h 73 % 0 mm
15:11 -5 °C -8.2 °C 34395 hPa SW 14.5 km/h 14.5 km/h 70 % 0 mm
15:16 -5 °C -8.4 °C 34395 hPa WSW 11.9 km/h 11.9 km/h 68 % 0 mm
15:21 -5.1 °C -8.7 °C 34395 hPa West 11.9 km/h 11.9 km/h 67 % 0 mm
15:27 -5 °C -8.6 °C 34395 hPa West 6.8 km/h 6.8 km/h 67 % 0 mm
15:32 -5.1 °C -8.7 °C 34395 hPa WSW 6 km/h 6 km/h 67 % 0 mm
15:37 -5.1 °C -8.8 °C 34361.1 hPa West 6.3 km/h 6.3 km/h 66 % 0 mm
15:42 -5.1 °C -8.9 °C 34361.1 hPa WSW 9 km/h 9 km/h 65 % 0 mm
15:47 -5.1 °C -8.9 °C 34361.1 hPa South 6 km/h 6 km/h 65 % 0 mm
15:52 -5.1 °C -8.9 °C 34361.1 hPa West 9 km/h 9 km/h 65 % 0 mm
15:57 -5.1 °C -9.1 °C 34361.1 hPa WNW 6 km/h 6 km/h 64 % 0 mm
16:02 -5 °C -9.1 °C 34361.1 hPa NNW 6 km/h 6 km/h 63 % 0 mm
16:07 -4.7 °C -9 °C 34327.3 hPa ENE 6 km/h 6 km/h 62 % 0 mm
16:12 -4.7 °C -9.1 °C 34327.3 hPa NW 10.3 km/h 10.3 km/h 61 % 0 mm
16:17 -4.7 °C -9.3 °C 34327.3 hPa ENE 9 km/h 9 km/h 60 % 0 mm
16:22 -4.7 °C -9.2 °C 34327.3 hPa NNE 8 km/h 8 km/h 60 % 0 mm
16:27 -4.4 °C -9.1 °C 34327.3 hPa NW 6.3 km/h 6.3 km/h 59 % 0 mm
16:32 -4.1 °C -8.8 °C 34327.3 hPa SW 9 km/h 9 km/h 59 % 0 mm
16:37 -3.8 °C -9.1 °C 34327.3 hPa WSW 9 km/h 9 km/h 56 % 0 mm
16:42 -3.7 °C -9.1 °C 34327.3 hPa WNW 11.9 km/h 11.9 km/h 55 % 0 mm
16:47 -3.7 °C -9.1 °C 34327.3 hPa North 6.3 km/h   55 % 0 mm
16:52 -3.9 °C -9.3 °C 34327.3 hPa ESE 6 km/h 6 km/h 55 % 0 mm
16:57 -3.7 °C -9.3 °C 34327.3 hPa SW 6.3 km/h 6.3 km/h 54 % 0 mm
17:02 -3.9 °C -9.6 °C 34327.3 hPa South 6 km/h 6 km/h 53 % 0 mm
17:07 -3.7 °C -9.4 °C 34327.3 hPa WSW 16.1 km/h   53 % 0 mm
17:12 -3.6 °C -9.3 °C 34327.3 hPa WSW 9 km/h 9 km/h 53 % 0 mm
17:17 -3.5 °C -9.2 °C 34327.3 hPa WSW 9 km/h 9 km/h 53 % 0 mm
17:22 -3.4 °C -9.2 °C 34293.4 hPa WSW 6 km/h 6.3 km/h 53 % 0 mm
17:27 -3.6 °C -9.3 °C 34293.4 hPa NW 6 km/h 6 km/h 53 % 0 mm
17:32 -3.6 °C -9.3 °C 34293.4 hPa West 9 km/h 9 km/h 53 % 0 mm
17:37 -3.6 °C -9.3 °C 34293.4 hPa SW 9 km/h 9 km/h 53 % 0 mm
17:42 -3.6 °C -9.4 °C 34293.4 hPa West 9 km/h 9 km/h 52 % 0 mm
17:47 -3.3 °C -9.2 °C 34293.4 hPa West 14 km/h 14 km/h 52 % 0 mm
17:52 -3.2 °C -9.1 °C 34293.4 hPa SW 9 km/h 9 km/h 52 % 0 mm
17:57 -3.1 °C -9 °C 34293.4 hPa Calm     52 % 0 mm
18:02 -2.8 °C -8.9 °C 34293.4 hPa SW 6 km/h 6 km/h 51 % 0 mm
18:04 -2.8 °C -8.9 °C 34293.4 hPa West 9 km/h 9 km/h 51 % 0 mm
18:09 -2.8 °C -9.1 °C 34293.4 hPa SW 6 km/h 6.3 km/h 50 % 0 mm
18:14 -2.8 °C -9.1 °C 34293.4 hPa SW 11.9 km/h 11.9 km/h 50 % 0 mm
18:19 -3.1 °C -9.3 °C 34256.2 hPa SW 9 km/h 9 km/h 50 % 0 mm
18:24 -3.1 °C -9.3 °C 34256.2 hPa West 9 km/h 9 km/h 50 % 0 mm
18:29 -3 °C -9.4 °C 34256.2 hPa SW 9 km/h 9 km/h 49 % 0 mm
18:34 -2.9 °C -9.3 °C 34256.2 hPa SW 6 km/h 6 km/h 49 % 0 mm
18:39 -2.9 °C -9.5 °C 34256.2 hPa WSW 15 km/h 15 km/h 48 % 0 mm
18:44 -2.8 °C -9.7 °C 34256.2 hPa West 9 km/h 9 km/h 47 % 0 mm
18:49 -2.7 °C -9.7 °C 34256.2 hPa West 9 km/h 9 km/h 46 % 0 mm
18:54 -2.7 °C -9.7 °C 34256.2 hPa SSW 15 km/h 15 km/h 46 % 0 mm
18:59 -2.8 °C -10.1 °C 34256.2 hPa SSE 15 km/h 15 km/h 45 % 0 mm
19:04 -2.8 °C -10.1 °C 34293.4 hPa SSW 11.9 km/h 11.9 km/h 45 % 0 mm
19:09 -2.8 °C -10.2 °C 34293.4 hPa WSW 11.9 km/h 11.9 km/h 44 % 0 mm
19:10 -6.7 °C -12 °C 34428.8 hPa NE 5.1 km/h 5.1 km/h 54 % 0 mm
19:14 -3 °C -10.6 °C 34293.4 hPa South 15 km/h 15 km/h 43 % 0 mm
19:19 -2.9 °C -10.3 °C 34293.4 hPa SW 10.3 km/h 10.3 km/h 44 % 0 mm
19:20 -6.7 °C -11.3 °C 34428.8 hPa NE 5.1 km/h 10.3 km/h 59 % 0 mm
19:24 -3.1 °C -10.6 °C 34293.4 hPa South 15.6 km/h 15.6 km/h 43 % 0 mm
19:29 -3.1 °C -10.7 °C 34293.4 hPa SW 9 km/h 9 km/h 43 % 0 mm
19:30 -6.8 °C -10.7 °C 34428.8 hPa ENE 5.1 km/h 10.3 km/h 64 % 0 mm
19:39 -3.2 °C -10.8 °C 34327.3 hPa SW 9 km/h 9 km/h 43 % 0 mm
19:40 -6.9 °C -10.4 °C 34428.8 hPa ENE 7.7 km/h 7.7 km/h 67 % 0 mm
19:44 -3.3 °C -10.7 °C 34327.3 hPa SSW 11.9 km/h 11.9 km/h 44 % 0 mm
19:49 -3.4 °C -10.8 °C 34327.3 hPa SW 9 km/h 9 km/h 44 % 0 mm
19:50 -7.1 °C -10.3 °C 34428.8 hPa ENE 7.7 km/h 10.3 km/h 69 % 0 mm
19:54 -3.6 °C -10.9 °C 34327.3 hPa SW 11.9 km/h 11.9 km/h 44 % 0 mm
19:59 -3.7 °C -10.9 °C 34327.3 hPa South 15 km/h 15 km/h 44 % 0 mm
20:00 -7.1 °C -10.1 °C 34428.8 hPa ENE 2.6 km/h 15.6 km/h 71 % 0 mm
20:04 -3.8 °C -10.9 °C 34327.3 hPa WSW 9 km/h 9 km/h 45 % 0 mm
20:09 -3.9 °C -11 °C 34327.3 hPa SW 9.3 km/h 9.3 km/h 45 % 0 mm
20:10 -7.2 °C -10.1 °C 34428.8 hPa NE 7.7 km/h 10.3 km/h 72 % 0 mm
20:14 -4 °C -10.9 °C 34327.3 hPa SW 11.9 km/h 11.9 km/h 46 % 0 mm
20:19 -4.1 °C -10.8 °C 34327.3 hPa SW 6 km/h 6 km/h 47 % 0 mm
20:20 -7.2 °C -10.1 °C 34428.8 hPa ENE 7.7 km/h 15.6 km/h 72 % 0 mm
20:24 -4.1 °C -10.8 °C 34327.3 hPa SW 9 km/h 9 km/h 47 % 0 mm
20:29 -4.2 °C -10.7 °C 34327.3 hPa SW 4.2 km/h   48 % 0 mm
20:30 -7.3 °C -9.9 °C 34428.8 hPa NE 7.7 km/h 10.3 km/h 74 % 0 mm
20:34 -4.3 °C -10.8 °C 34327.3 hPa SSW 11.9 km/h 11.9 km/h 48 % 0 mm
20:39 -4.4 °C -10.7 °C 34327.3 hPa WSW 9 km/h 9.8 km/h 49 % 0 mm
20:40 -7.3 °C -9.8 °C 34428.8 hPa NE 7.7 km/h 10.3 km/h 75 % 0 mm
20:44 -4.4 °C -10.7 °C 34327.3 hPa WSW 9 km/h 9 km/h 49 % 0 mm
20:49 -4.4 °C -10.6 °C 34327.3 hPa SW 9 km/h 9 km/h 50 % 0 mm
20:50 -7.3 °C -9.9 °C 34428.8 hPa ENE 7.7 km/h 7.7 km/h 74 % 0 mm
20:54 -4.5 °C -10.7 °C 34327.3 hPa WSW 7.6 km/h 7.6 km/h 50 % 0 mm
20:59 -4.6 °C -10.6 °C 34327.3 hPa West 6.3 km/h 6.3 km/h 51 % 0 mm
21:00 -7.3 °C -9.8 °C 34428.8 hPa ENE 5.1 km/h 7.7 km/h 75 % 0 mm
21:04 -4.7 °C -10.6 °C 34327.3 hPa SSW 6 km/h 6 km/h 51 % 0 mm
21:09 -4.7 °C -10.7 °C 34327.3 hPa WSW 9 km/h 9 km/h 51 % 0 mm
21:10 -7.4 °C -9.9 °C 34428.8 hPa ENE 2.6 km/h 7.7 km/h 75 % 0 mm
21:14 -4.8 °C -10.6 °C 34327.3 hPa SSW 9.3 km/h 9.3 km/h 52 % 0 mm
21:19 -4.8 °C -10.6 °C 34327.3 hPa WSW 15 km/h 15 km/h 52 % 0 mm
21:20 -7.3 °C -9.8 °C 34428.8 hPa ENE 7.7 km/h 7.7 km/h 75 % 0 mm
21:24 -4.9 °C -10.5 °C 34327.3 hPa WSW 9 km/h 9 km/h 53 % 0 mm
21:29 -4.9 °C -10.5 °C 34327.3 hPa West 11.9 km/h 11.9 km/h 53 % 0 mm
21:30 -7.3 °C -9.8 °C 34428.8 hPa ENE 5.1 km/h 7.7 km/h 75 % 0 mm
21:34 -4.8 °C -10.4 °C 34361.1 hPa WNW 20.9 km/h 20.9 km/h 53 % 0 mm
21:39 -5 °C -10.8 °C 34361.1 hPa WNW 20.9 km/h 20.9 km/h 52 % 0 mm
21:40 -7.3 °C -9.7 °C 34428.8 hPa East 5.1 km/h 10.3 km/h 76 % 0 mm
21:44 -5.1 °C -10.7 °C 34361.1 hPa West 11.9 km/h 11.9 km/h 53 % 0 mm
21:49 -5.2 °C -10.9 °C 34361.1 hPa WSW 15 km/h 15 km/h 52 % 0 mm
21:50 -7.3 °C -9.7 °C 34428.8 hPa East 2.6 km/h 5.1 km/h 76 % 0 mm
21:54 -5.2 °C -11 °C 34361.1 hPa North 15 km/h 15 km/h 52 % 0 mm
21:59 -5.3 °C -11.1 °C 34361.1 hPa WSW 11.9 km/h 11.9 km/h 52 % 0 mm
22:00 -7.3 °C -9.7 °C 34428.8 hPa East 2.6 km/h 5.1 km/h 76 % 0 mm
22:04 -5.4 °C -11.2 °C 34361.1 hPa NE 6 km/h 6 km/h 52 % 0 mm
22:09 -5.4 °C -11.3 °C 34361.1 hPa ENE 9 km/h 9 km/h 51 % 0 mm
22:10 -7.4 °C -9.9 °C 34428.8 hPa ENE 2.6 km/h 5.1 km/h 75 % 0 mm
22:14 -5.5 °C -11.4 °C 34361.1 hPa NE 7.6 km/h 7.6 km/h 51 % 0 mm
22:19 -5.6 °C -11.6 °C 34395 hPa SW 6 km/h 6 km/h 50 % 0 mm
22:20 -7.4 °C -9.9 °C 34428.8 hPa Calm   2.6 km/h 75 % 0 mm
22:24 -5.6 °C -11.5 °C 34395 hPa North 6 km/h 6 km/h 51 % 0 mm
22:29 -5.6 °C -11.5 °C 34395 hPa SW 6 km/h 6 km/h 51 % 0 mm
22:30 -7.5 °C -10 °C 34428.8 hPa Calm     75 % 0 mm
22:34 -5.8 °C -11.7 °C 34395 hPa WSW 9 km/h 9 km/h 51 % 0 mm
22:39 -5.9 °C -11.8 °C 34395 hPa Calm     51 % 0 mm
22:40 -7.6 °C -10 °C 34395 hPa NNE 2.6 km/h 7.7 km/h 76 % 0 mm
22:44 -5.9 °C -11.8 °C 34395 hPa NNE 6 km/h 6 km/h 51 % 0 mm
22:49 -6 °C -11.8 °C 34395 hPa NNW 3.1 km/h   51 % 0 mm
22:50 -7.7 °C -10.1 °C 34428.8 hPa NE 2.6 km/h 7.7 km/h 76 % 0 mm
22:54 -6.1 °C -11.9 °C 34395 hPa West 6.3 km/h 6.3 km/h 51 % 0 mm
22:59 -6.1 °C -11.9 °C 34395 hPa WSW 4.2 km/h   51 % 0 mm
23:00 -7.8 °C -10.3 °C 34428.8 hPa Calm   5.1 km/h 75 % 0 mm
23:04 -6.2 °C -11.8 °C 34395 hPa SW 7.6 km/h   52 % 0 mm
23:09 -6.4 °C -12.1 °C 34395 hPa SW 9 km/h 9 km/h 52 % 0 mm
23:10 -7.8 °C -10.4 °C 34428.8 hPa NE 2.6 km/h 5.1 km/h 74 % 0 mm
23:15 -6.4 °C -11.9 °C 34395 hPa WSW 6 km/h 6.3 km/h 53 % 0 mm
23:20 -6.5 °C -12 °C 34395 hPa WSW 9 km/h 9 km/h 53 % 0 mm
23:25 -6.5 °C -12 °C 34395 hPa WSW 6 km/h 6 km/h 53 % 0 mm
23:30 -6.6 °C -12.1 °C 34395 hPa WSW 3.1 km/h   53 % 0 mm
23:35 -6.6 °C -12.1 °C 34395 hPa WNW 3.1 km/h   53 % 0 mm
23:40 -6.6 °C -11.9 °C 34395 hPa WNW 3.1 km/h   54 % 0 mm
23:45 -6.6 °C -11.9 °C 34395 hPa Calm     54 % 0 mm
23:50 -6.6 °C -11.9 °C 34395 hPa Calm     54 % 0 mm
23:55 -6.6 °C -11.9 °C 34395 hPa Calm     54 % 0 mm
Meteo Sesrovires
Elogis d' Weather Underground - 1.5 mb

Guio original per  Jim McMurry - jmcmurry@mwt.net Adaptat per a la plantilla per  Wim van der Kuil - Leuven-Template.eu

Trobareu la nostra informacio del temps tambe a:

Weather Underground

AWEKAS